createdAt,value
2018-10-11T00:02:06.316Z,89.63
2018-10-11T00:04:34.867Z,89.52
2018-10-11T00:07:03.410Z,89.35
2018-10-11T00:09:31.947Z,89.50
2018-10-11T00:12:00.501Z,89.72
2018-10-11T00:14:29.033Z,89.40
2018-10-11T00:16:57.537Z,89.56
2018-10-11T00:19:26.094Z,89.31
2018-10-11T00:21:54.609Z,89.58
2018-10-11T00:24:23.134Z,89.76
2018-10-11T00:26:51.653Z,90.03
2018-10-11T00:29:20.170Z,90.00
2018-10-11T00:31:48.699Z,90.20
2018-10-11T00:34:17.254Z,90.47
2018-10-11T00:36:45.767Z,90.65
2018-10-11T00:39:14.302Z,90.75
2018-10-11T00:41:42.809Z,90.74
2018-10-11T00:44:15.011Z,90.94
2018-10-11T00:46:44.787Z,91.09
2018-10-11T00:49:13.323Z,91.35
2018-10-11T00:51:41.868Z,91.42
2018-10-11T00:54:10.625Z,91.61
2018-10-11T00:56:39.533Z,91.87
2018-10-11T00:59:08.677Z,91.92
2018-10-11T01:01:37.185Z,92.27
2018-10-11T01:04:05.726Z,92.06
2018-10-11T01:06:34.255Z,92.00
2018-10-11T01:09:02.812Z,92.43
2018-10-11T01:11:31.320Z,92.55
2018-10-11T01:13:59.845Z,92.71
2018-10-11T01:16:28.363Z,92.32
2018-10-11T01:18:56.902Z,92.60
2018-10-11T01:21:25.397Z,92.46
2018-10-11T01:23:53.977Z,92.41
2018-10-11T01:26:22.465Z,92.79
2018-10-11T01:28:50.995Z,92.93
2018-10-11T01:31:20.415Z,93.26
2018-10-11T01:33:50.222Z,93.43
2018-10-11T01:36:18.789Z,93.48
2018-10-11T01:38:49.291Z,93.40
2018-10-11T01:41:17.736Z,93.35
2018-10-11T01:43:46.308Z,93.21
2018-10-11T01:46:14.799Z,93.15
2018-10-11T01:48:43.346Z,93.33
2018-10-11T01:51:11.894Z,93.28
2018-10-11T01:53:40.418Z,93.16
2018-10-11T01:56:09.394Z,93.43
2018-10-11T01:58:37.941Z,93.35
2018-10-11T02:01:06.712Z,93.17
2018-10-11T02:03:35.214Z,93.27
2018-10-11T02:06:03.741Z,93.44
2018-10-11T02:08:32.234Z,93.46
2018-10-11T02:11:00.766Z,93.67
2018-10-11T02:13:29.270Z,93.75
2018-10-11T02:15:57.794Z,93.71
2018-10-11T02:18:26.286Z,93.49
2018-10-11T02:20:54.814Z,93.73
2018-10-11T02:23:23.317Z,93.95
2018-10-11T02:25:51.846Z,94.29
2018-10-11T02:28:20.488Z,94.27
2018-10-11T02:30:49.031Z,94.54
2018-10-11T02:33:17.530Z,94.83
2018-10-11T02:35:46.098Z,94.75
2018-10-11T02:38:14.599Z,94.87
2018-10-11T02:40:43.136Z,94.91
2018-10-11T02:43:11.630Z,94.73
2018-10-11T02:45:40.285Z,94.90
2018-10-11T02:48:09.131Z,94.93
2018-10-11T02:50:37.652Z,94.87
2018-10-11T02:53:06.230Z,94.84
2018-10-11T02:55:34.823Z,94.67
2018-10-11T02:59:16.484Z,94.49
2018-10-11T03:01:45.048Z,94.56
2018-10-11T03:04:13.593Z,94.72
2018-10-11T03:06:42.250Z,95.17
2018-10-11T03:09:10.781Z,95.16
2018-10-11T03:11:39.456Z,95.33
2018-10-11T03:14:07.973Z,95.35
2018-10-11T03:16:36.517Z,95.43
2018-10-11T03:19:05.053Z,95.83
2018-10-11T03:21:33.573Z,95.49
2018-10-11T03:24:02.074Z,95.29
2018-10-11T03:26:30.597Z,95.37
2018-10-11T03:28:59.114Z,95.10
2018-10-11T03:31:27.652Z,95.23
2018-10-11T03:33:56.183Z,95.22
2018-10-11T03:36:24.726Z,95.20
2018-10-11T03:38:53.232Z,95.21
2018-10-11T03:41:21.770Z,95.45
2018-10-11T03:43:50.319Z,95.63
2018-10-11T03:46:18.901Z,95.28
2018-10-11T03:48:47.385Z,95.60
2018-10-11T03:51:15.903Z,95.64
2018-10-11T03:53:44.409Z,95.61
2018-10-11T03:56:12.932Z,95.73
2018-10-11T03:58:41.470Z,95.48
2018-10-11T04:01:10.020Z,95.76
2018-10-11T04:03:38.573Z,95.54
2018-10-11T04:06:07.152Z,95.67
2018-10-11T04:08:35.659Z,95.83
2018-10-11T04:11:04.192Z,95.91
2018-10-11T04:13:32.696Z,96.13
2018-10-11T04:16:01.210Z,95.71
2018-10-11T04:18:29.699Z,96.03
2018-10-11T04:20:58.233Z,96.49
2018-10-11T04:23:28.955Z,96.15
2018-10-11T04:25:58.224Z,96.10
2018-10-11T04:28:27.711Z,95.73
2018-10-11T04:30:57.054Z,95.97
2018-10-11T04:33:25.933Z,95.37
2018-10-11T04:35:54.547Z,95.40
2018-10-11T04:38:23.056Z,94.92
2018-10-11T04:40:51.605Z,95.06
2018-10-11T04:43:20.185Z,94.98
2018-10-11T04:45:48.689Z,94.96
2018-10-11T04:48:17.213Z,95.17
2018-10-11T04:50:45.754Z,95.36
2018-10-11T04:53:15.155Z,95.38
2018-10-11T04:55:44.720Z,95.51
2018-10-11T04:58:13.245Z,95.67
2018-10-11T05:00:42.015Z,96.13
2018-10-11T05:03:12.037Z,96.22
2018-10-11T05:05:41.047Z,96.21
2018-10-11T05:08:09.589Z,96.39
2018-10-11T05:10:38.090Z,96.29
2018-10-11T05:13:06.736Z,96.33
2018-10-11T05:15:36.703Z,96.47
2018-10-11T05:18:05.832Z,96.45
2018-10-11T05:20:34.355Z,96.69
2018-10-11T05:23:02.898Z,96.44
2018-10-11T05:25:31.424Z,96.32
2018-10-11T05:27:59.994Z,96.01
2018-10-11T05:30:28.533Z,96.16
2018-10-11T05:32:57.447Z,95.91
2018-10-11T05:35:25.948Z,95.54
2018-10-11T05:37:54.500Z,95.73
2018-10-11T05:40:23.035Z,95.69
2018-10-11T05:42:51.599Z,95.80
2018-10-11T05:45:22.933Z,95.46
2018-10-11T05:47:51.494Z,95.26
2018-10-11T05:50:20.165Z,95.31
2018-10-11T05:52:48.901Z,95.03
2018-10-11T05:55:17.457Z,94.20
2018-10-11T05:57:46.037Z,93.43
2018-10-11T06:00:14.539Z,93.24
2018-10-11T06:02:56.027Z,93.03
2018-10-11T06:05:24.549Z,92.73
2018-10-11T06:07:53.170Z,92.95
2018-10-11T06:10:21.725Z,92.64
2018-10-11T06:12:50.277Z,92.37
2018-10-11T06:15:18.837Z,92.29
2018-10-11T06:17:47.395Z,91.56
2018-10-11T06:20:15.938Z,91.28
2018-10-11T06:22:44.544Z,91.05
2018-10-11T06:25:13.095Z,90.51
2018-10-11T06:27:42.445Z,89.86
2018-10-11T06:30:11.605Z,89.35
2018-10-11T06:32:40.171Z,89.01
2018-10-11T06:35:08.716Z,88.84
2018-10-11T06:37:37.282Z,88.34
2018-10-11T06:40:05.834Z,88.27
2018-10-11T06:42:34.782Z,87.33
2018-10-11T06:45:03.985Z,87.58
2018-10-11T06:47:33.030Z,87.29
2018-10-11T06:50:03.076Z,86.78
2018-10-11T06:52:31.589Z,86.32
2018-10-11T06:55:00.156Z,86.08
2018-10-11T06:57:28.655Z,85.87
2018-10-11T06:59:57.178Z,85.19
2018-10-11T07:02:25.684Z,85.29
2018-10-11T07:04:54.211Z,84.56
2018-10-11T07:07:22.777Z,83.90
2018-10-11T07:09:51.292Z,84.88
2018-10-11T07:12:19.818Z,83.66
2018-10-11T07:14:48.326Z,83.76
2018-10-11T07:17:16.872Z,84.12
2018-10-11T07:19:45.639Z,83.14
2018-10-11T07:22:14.179Z,82.27
2018-10-11T07:24:42.710Z,82.82
2018-10-11T07:27:11.244Z,82.58
2018-10-11T07:29:39.750Z,81.28
2018-10-11T07:32:08.553Z,80.92
2018-10-11T07:34:37.113Z,80.50
2018-10-11T07:37:05.625Z,80.11
2018-10-11T07:39:34.125Z,79.72
2018-10-11T07:42:02.654Z,79.43
2018-10-11T07:44:31.154Z,79.02
2018-10-11T07:46:59.687Z,78.81
2018-10-11T07:49:28.193Z,79.37
2018-10-11T07:51:56.722Z,78.25
2018-10-11T07:54:30.373Z,77.39
2018-10-11T07:56:58.960Z,77.24
2018-10-11T07:59:27.459Z,77.14
2018-10-11T08:01:56.000Z,78.08
2018-10-11T08:04:24.514Z,76.56
2018-10-11T08:06:53.030Z,76.02
2018-10-11T08:09:21.553Z,75.91
2018-10-11T08:11:50.193Z,75.28
2018-10-11T08:14:18.946Z,74.91
2018-10-11T08:16:48.224Z,75.33
2018-10-11T08:19:16.836Z,73.94
2018-10-11T08:21:45.191Z,74.45
2018-10-11T08:24:13.721Z,74.07
2018-10-11T08:26:42.239Z,73.73
2018-10-11T08:29:10.775Z,73.60
2018-10-11T08:31:46.054Z,74.00
2018-10-11T08:34:14.542Z,73.91
2018-10-11T08:36:43.055Z,72.79
2018-10-11T08:39:12.926Z,72.35
2018-10-11T08:41:41.530Z,71.54
2018-10-11T08:44:11.496Z,71.58
2018-10-11T08:46:40.027Z,71.04
2018-10-11T08:49:08.631Z,71.93
2018-10-11T08:51:37.477Z,70.52
2018-10-11T08:54:11.363Z,70.11
2018-10-11T08:56:39.868Z,69.79
2018-10-11T08:59:08.476Z,68.46
2018-10-11T09:01:36.963Z,69.10
2018-10-11T09:04:05.664Z,68.32
2018-10-11T09:06:34.076Z,68.37
2018-10-11T09:09:02.644Z,67.32
2018-10-11T09:11:31.209Z,68.19
2018-10-11T09:13:59.725Z,67.67
2018-10-11T09:16:28.245Z,66.67
2018-10-11T09:18:56.768Z,67.71
2018-10-11T09:21:25.298Z,66.28
2018-10-11T09:23:53.806Z,66.60
2018-10-11T09:26:22.346Z,65.38
2018-10-11T09:28:50.877Z,65.75
2018-10-11T09:31:19.409Z,65.02
2018-10-11T09:33:47.909Z,63.90
2018-10-11T09:36:16.501Z,64.01
2018-10-11T09:38:45.022Z,63.80
2018-10-11T09:41:13.560Z,63.47
2018-10-11T09:43:42.191Z,64.11
2018-10-11T09:46:10.733Z,62.18
2018-10-11T09:48:39.293Z,62.69
2018-10-11T09:51:08.876Z,63.12
2018-10-11T09:53:37.389Z,63.44
2018-10-11T09:56:06.025Z,62.51
2018-10-11T09:58:34.533Z,61.35
2018-10-11T10:01:08.299Z,60.52
2018-10-11T10:03:37.091Z,61.46
2018-10-11T10:06:05.702Z,61.64
2018-10-11T10:08:34.227Z,62.79
2018-10-11T10:11:02.777Z,61.58
2018-10-11T10:13:31.289Z,60.88
2018-10-11T10:15:59.925Z,60.79
2018-10-11T10:18:28.510Z,59.84
2018-10-11T10:20:57.057Z,60.45
2018-10-11T10:23:25.635Z,59.72
2018-10-11T10:25:54.159Z,60.97
2018-10-11T10:28:22.684Z,58.55
2018-10-11T10:30:52.520Z,59.39
2018-10-11T10:33:22.079Z,57.86
2018-10-11T10:35:50.677Z,58.26
2018-10-11T10:38:19.481Z,57.65
2018-10-11T10:40:47.994Z,58.33
2018-10-11T10:43:16.530Z,58.82
2018-10-11T10:45:45.037Z,57.62
2018-10-11T10:48:13.628Z,57.30
2018-10-11T10:50:42.163Z,56.60
2018-10-11T10:53:10.698Z,57.44
2018-10-11T10:55:39.253Z,57.83
2018-10-11T10:58:07.854Z,57.48
2018-10-11T11:00:36.369Z,56.95
2018-10-11T11:03:04.914Z,55.87
2018-10-11T11:05:33.435Z,55.14
2018-10-11T11:08:01.987Z,55.49
2018-10-11T11:10:30.478Z,54.85
2018-10-11T11:12:59.062Z,55.02
2018-10-11T11:15:27.598Z,55.14
2018-10-11T11:17:56.126Z,55.45
2018-10-11T11:20:24.661Z,54.59
2018-10-11T11:22:53.194Z,53.71
2018-10-11T11:25:21.767Z,53.97
2018-10-11T11:27:50.269Z,53.74
2018-10-11T11:30:18.771Z,53.12
2018-10-11T11:32:47.274Z,52.53
2018-10-11T11:35:15.816Z,52.41
2018-10-11T11:37:44.384Z,53.02
2018-10-11T11:40:12.915Z,52.45
2018-10-11T11:42:41.422Z,52.27
2018-10-11T11:45:09.953Z,52.00
2018-10-11T11:47:38.457Z,52.33
2018-10-11T11:50:07.145Z,52.44
2018-10-11T11:52:35.648Z,52.88
2018-10-11T11:55:04.181Z,51.75
2018-10-11T11:57:32.673Z,52.31
2018-10-11T12:00:01.205Z,50.92
2018-10-11T12:02:29.731Z,52.07
2018-10-11T12:04:58.330Z,50.84
2018-10-11T12:07:26.829Z,50.63
2018-10-11T12:09:55.353Z,50.72
2018-10-11T12:13:04.834Z,51.00
2018-10-11T12:15:34.076Z,50.12
2018-10-11T12:18:03.581Z,51.64
2018-10-11T12:20:33.218Z,50.28
2018-10-11T12:23:03.038Z,50.43
2018-10-11T12:25:31.857Z,50.46
2018-10-11T12:28:00.369Z,49.41
2018-10-11T12:30:29.016Z,50.18
2018-10-11T12:32:57.536Z,50.14
2018-10-11T12:35:26.446Z,49.80
2018-10-11T12:37:54.978Z,50.36
2018-10-11T12:40:24.226Z,51.03
2018-10-11T12:42:52.063Z,48.87
2018-10-11T12:45:20.738Z,48.67
2018-10-11T12:47:49.298Z,49.11
2018-10-11T12:50:17.835Z,48.04
2018-10-11T12:52:46.398Z,48.38
2018-10-11T12:55:14.912Z,49.01
2018-10-11T12:57:43.549Z,49.65
2018-10-11T13:00:13.846Z,48.72
2018-10-11T13:02:42.548Z,49.56
2018-10-11T13:05:11.102Z,47.82
2018-10-11T13:07:40.161Z,47.67
2018-10-11T13:10:08.835Z,48.35
2018-10-11T13:12:37.375Z,47.78
2018-10-11T13:15:06.355Z,47.44
2018-10-11T13:17:40.130Z,47.24
2018-10-11T13:20:04.008Z,47.78
2018-10-11T13:22:32.561Z,47.58
2018-10-11T13:25:01.093Z,47.50
2018-10-11T13:27:29.614Z,47.61
2018-10-11T13:29:58.138Z,47.76
2018-10-11T13:32:26.678Z,47.81
2018-10-11T13:34:55.228Z,47.72
2018-10-11T13:37:23.781Z,47.33
2018-10-11T13:39:56.992Z,47.21
2018-10-11T13:42:20.854Z,46.51
2018-10-11T13:44:49.364Z,47.25
2018-10-11T13:47:17.941Z,46.79
2018-10-11T13:49:46.467Z,47.52
2018-10-11T13:52:17.049Z,46.65
2018-10-11T13:54:43.565Z,47.05
2018-10-11T13:57:12.099Z,47.17
2018-10-11T13:59:40.626Z,46.79
2018-10-11T14:02:09.192Z,46.61
2018-10-11T14:04:37.807Z,47.43
2018-10-11T14:07:06.257Z,47.47
2018-10-11T14:09:34.781Z,46.33
2018-10-11T14:12:03.285Z,46.20
2018-10-11T14:14:31.833Z,46.14
2018-10-11T14:17:00.346Z,46.32
2018-10-11T14:19:28.875Z,45.83
2018-10-11T14:21:58.129Z,46.69
2018-10-11T14:24:27.007Z,46.18
2018-10-11T14:26:55.526Z,45.93
2018-10-11T14:29:24.045Z,46.58
2018-10-11T14:31:52.547Z,45.75
2018-10-11T14:34:21.091Z,46.48
2018-10-11T14:36:49.719Z,46.43
2018-10-11T14:39:18.166Z,47.31
2018-10-11T14:41:46.682Z,47.13
2018-10-11T14:44:15.214Z,47.44
2018-10-11T14:46:43.722Z,47.57
2018-10-11T14:49:12.288Z,47.48
2018-10-11T14:51:44.475Z,47.75
2018-10-11T14:54:09.394Z,47.77
2018-10-11T14:56:37.926Z,47.92
2018-10-11T14:59:06.449Z,47.84
2018-10-11T15:01:34.987Z,47.81
2018-10-11T15:04:03.497Z,48.40
2018-10-11T15:06:32.034Z,49.15
2018-10-11T15:09:00.542Z,48.25
2018-10-11T15:11:29.207Z,48.35
2018-10-11T15:13:57.620Z,48.40
2018-10-11T15:16:26.159Z,48.76
2018-10-11T15:18:54.679Z,49.58
2018-10-11T15:21:23.214Z,49.66
2018-10-11T15:23:51.765Z,49.93
2018-10-11T15:26:20.289Z,50.44
2018-10-11T15:28:48.789Z,49.85
2018-10-11T15:31:17.327Z,49.98
2018-10-11T15:33:45.866Z,50.50
2018-10-11T15:36:14.404Z,50.38
2018-10-11T15:38:42.905Z,49.87
2018-10-11T15:41:11.443Z,50.16
2018-10-11T15:43:39.955Z,50.41
2018-10-11T15:46:08.534Z,50.34
2018-10-11T15:48:37.048Z,51.12
2018-10-11T15:51:05.582Z,50.58
2018-10-11T15:53:34.216Z,50.47
2018-10-11T15:56:02.749Z,50.24
2018-10-11T15:58:31.265Z,50.75
2018-10-11T16:00:59.837Z,50.82
2018-10-11T16:03:28.370Z,50.87
2018-10-11T16:05:56.943Z,51.08
2018-10-11T16:08:25.470Z,51.52
2018-10-11T16:10:54.348Z,51.62
2018-10-11T16:13:24.469Z,51.89
2018-10-11T16:15:53.146Z,52.05
2018-10-11T16:18:25.500Z,52.53
2018-10-11T16:20:54.034Z,52.69
2018-10-11T16:23:22.590Z,53.37
2018-10-11T16:25:51.169Z,53.90
2018-10-11T16:28:19.713Z,54.31
2018-10-11T16:30:48.214Z,54.42
2018-10-11T16:33:16.822Z,55.15
2018-10-11T16:35:45.374Z,55.25
2018-10-11T16:38:13.901Z,55.80
2018-10-11T16:40:42.494Z,56.83
2018-10-11T16:43:11.072Z,58.02
2018-10-11T16:45:39.592Z,58.80
2018-10-11T16:48:08.133Z,60.03
2018-10-11T16:50:36.653Z,61.13
2018-10-11T16:53:05.176Z,61.95
2018-10-11T16:55:33.689Z,63.01
2018-10-11T16:58:02.308Z,64.08
2018-10-11T17:00:30.809Z,64.89
2018-10-11T17:02:59.349Z,66.07
2018-10-11T17:05:27.848Z,66.92
2018-10-11T17:07:56.479Z,67.87
2018-10-11T17:10:24.939Z,68.79
2018-10-11T17:12:53.477Z,70.47
2018-10-11T17:15:22.155Z,71.62
2018-10-11T17:17:50.717Z,72.54
2018-10-11T17:20:19.227Z,73.27
2018-10-11T17:22:47.806Z,73.77
2018-10-11T17:25:16.321Z,74.05
2018-10-11T17:27:44.842Z,75.04
2018-10-11T17:30:13.370Z,75.85
2018-10-11T17:32:41.901Z,76.57
2018-10-11T17:35:10.485Z,76.49
2018-10-11T17:37:38.995Z,77.50
2018-10-11T17:40:07.539Z,78.51
2018-10-11T17:42:36.062Z,79.48
2018-10-11T17:45:04.582Z,79.95
2018-10-11T17:47:33.109Z,79.99
2018-10-11T17:50:01.619Z,80.46
2018-10-11T17:52:30.189Z,81.34
2018-10-11T17:54:59.150Z,81.85
2018-10-11T17:57:27.926Z,82.32
2018-10-11T17:59:56.445Z,82.54
2018-10-11T18:02:24.958Z,83.19
2018-10-11T18:04:54.258Z,83.43
2018-10-11T18:07:22.801Z,83.50
2018-10-11T18:09:51.362Z,84.16
2018-10-11T18:12:19.856Z,84.79
2018-10-11T18:14:48.402Z,85.09
2018-10-11T18:17:16.933Z,84.73
2018-10-11T18:19:45.524Z,84.52
2018-10-11T18:22:14.045Z,84.97
2018-10-11T18:24:42.590Z,85.43
2018-10-11T18:27:11.091Z,85.10
2018-10-11T18:29:41.654Z,85.87
2018-10-11T18:32:10.273Z,86.48
2018-10-11T18:34:39.124Z,88.04
2018-10-11T18:37:07.973Z,88.96
2018-10-11T18:39:36.497Z,88.89
2018-10-11T18:42:05.037Z,89.04
2018-10-11T18:44:33.576Z,89.49
2018-10-11T18:47:02.094Z,90.05
2018-10-11T18:49:30.639Z,90.05
2018-10-11T18:51:59.158Z,89.58
2018-10-11T18:54:27.697Z,88.96
2018-10-11T18:56:56.217Z,89.53
2018-10-11T18:59:24.738Z,90.17
2018-10-11T19:01:53.246Z,90.61
2018-10-11T19:04:21.769Z,91.18
2018-10-11T19:06:50.293Z,91.49
2018-10-11T19:09:18.825Z,91.38
2018-10-11T19:11:47.359Z,90.96
2018-10-11T19:14:15.895Z,91.02
2018-10-11T19:16:44.429Z,90.92
2018-10-11T19:19:12.957Z,92.21
2018-10-11T19:21:41.465Z,93.42
2018-10-11T19:24:10.010Z,94.11
2018-10-11T19:26:38.544Z,94.08
2018-10-11T19:29:07.090Z,94.13
2018-10-11T19:31:35.597Z,94.31
2018-10-11T19:34:04.198Z,94.01
2018-10-11T19:36:32.722Z,92.81
2018-10-11T19:39:01.265Z,91.59
2018-10-11T19:41:29.822Z,92.04
2018-10-11T19:43:58.357Z,92.87
2018-10-11T19:46:26.857Z,93.13
2018-10-11T19:48:55.392Z,92.25
2018-10-11T19:51:23.913Z,91.63
2018-10-11T19:53:52.456Z,91.91
2018-10-11T19:56:20.982Z,92.70
2018-10-11T19:58:49.493Z,92.35
2018-10-11T20:01:18.094Z,92.52
2018-10-11T20:03:46.620Z,93.33
2018-10-11T20:06:15.209Z,93.41
2018-10-11T20:08:43.721Z,93.13
2018-10-11T20:11:12.259Z,93.40
2018-10-11T20:13:40.774Z,93.74
2018-10-11T20:16:09.312Z,94.30
2018-10-11T20:18:38.211Z,94.66
2018-10-11T20:21:07.135Z,95.40
2018-10-11T20:23:35.760Z,95.39
2018-10-11T20:26:04.391Z,95.16
2018-10-11T20:28:32.900Z,94.97
2018-10-11T20:31:01.432Z,94.84
2018-10-11T20:33:29.993Z,95.35
2018-10-11T20:35:58.537Z,95.90
2018-10-11T20:38:27.689Z,96.62
2018-10-11T20:40:56.302Z,96.89
2018-10-11T20:43:24.836Z,96.50
2018-10-11T20:45:53.366Z,95.62
2018-10-11T20:48:21.872Z,95.47
2018-10-11T20:50:50.411Z,94.68
2018-10-11T20:53:18.921Z,94.30
2018-10-11T20:55:47.463Z,95.50
2018-10-11T20:58:15.969Z,95.79
2018-10-11T21:00:44.548Z,95.72
2018-10-11T21:03:13.090Z,94.98
2018-10-11T21:05:41.652Z,95.59
2018-10-11T21:08:10.221Z,95.93
2018-10-11T21:10:38.760Z,96.36
2018-10-11T21:13:07.296Z,96.52
2018-10-11T21:15:35.828Z,96.93
2018-10-11T21:18:04.341Z,97.79
2018-10-11T21:20:32.966Z,98.08
2018-10-11T21:23:01.418Z,97.95
2018-10-11T21:25:29.968Z,98.39
2018-10-11T21:27:58.534Z,97.74
2018-10-11T21:30:27.071Z,98.02
2018-10-11T21:32:55.584Z,97.45
2018-10-11T21:35:24.153Z,98.12
2018-10-11T21:37:52.650Z,99.05
2018-10-11T21:40:21.256Z,98.51
2018-10-11T21:42:49.759Z,96.61
2018-10-11T21:45:18.293Z,95.67
2018-10-11T21:47:46.801Z,97.56
2018-10-11T21:50:15.338Z,98.48
2018-10-11T21:52:43.935Z,98.10
2018-10-11T21:55:12.447Z,96.21
2018-10-11T21:57:40.954Z,94.24
2018-10-11T22:00:09.717Z,93.51
2018-10-11T22:02:38.218Z,94.35
2018-10-11T22:05:06.758Z,94.87
2018-10-11T22:07:35.281Z,96.68
2018-10-11T22:10:03.827Z,97.35
2018-10-11T22:12:32.365Z,97.81
2018-10-11T22:15:01.084Z,97.88
2018-10-11T22:17:29.429Z,97.13
2018-10-11T22:19:57.934Z,98.60
2018-10-11T22:22:26.472Z,99.18
2018-10-11T22:24:54.969Z,99.52
2018-10-11T22:27:23.525Z,98.91
2018-10-11T22:29:52.030Z,97.54
2018-10-11T22:32:20.563Z,96.04
2018-10-11T22:34:49.085Z,96.99
2018-10-11T22:37:17.620Z,97.38
2018-10-11T22:39:46.118Z,98.09
2018-10-11T22:42:14.642Z,98.94
2018-10-11T22:44:43.183Z,99.85
2018-10-11T22:47:11.729Z,100.00
2018-10-11T22:49:40.254Z,100.00
2018-10-11T22:52:08.786Z,99.79
2018-10-11T22:54:37.302Z,97.96
2018-10-11T22:57:05.862Z,95.45
2018-10-11T22:59:34.384Z,94.82
2018-10-11T23:02:02.933Z,95.57
2018-10-11T23:04:31.449Z,98.05
2018-10-11T23:06:59.987Z,98.71
2018-10-11T23:09:28.498Z,97.80
2018-10-11T23:11:57.072Z,96.80
2018-10-11T23:14:25.652Z,98.10
2018-10-11T23:16:54.161Z,98.81
2018-10-11T23:19:22.661Z,98.81
2018-10-11T23:21:51.184Z,98.47
2018-10-11T23:24:19.689Z,97.33
2018-10-11T23:26:48.267Z,97.73
2018-10-11T23:29:16.767Z,98.07
2018-10-11T23:31:45.312Z,97.76
2018-10-11T23:34:13.851Z,97.83
2018-10-11T23:36:42.376Z,99.03
2018-10-11T23:39:12.101Z,99.72
2018-10-11T23:41:41.418Z,99.69
2018-10-11T23:44:10.412Z,99.64
2018-10-11T23:46:39.265Z,99.10
2018-10-11T23:49:07.799Z,99.12
2018-10-11T23:51:36.335Z,99.29
2018-10-11T23:54:04.861Z,99.57
2018-10-11T23:56:33.401Z,99.49
2018-10-11T23:59:01.931Z,99.71
